sensor_id;sensor_type;location;lat;lon;timestamp;P1;durP1;ratioP1;P2;durP2;ratioP2
59734;SDS011;64362;45.620;4.920;2023-01-16T00:01:46;4.55;;;2.60;;
59734;SDS011;64362;45.620;4.920;2023-01-16T00:04:11;3.95;;;2.70;;
59734;SDS011;64362;45.620;4.920;2023-01-16T00:06:37;3.65;;;2.60;;
59734;SDS011;64362;45.620;4.920;2023-01-16T00:09:03;3.45;;;2.35;;
59734;SDS011;64362;45.620;4.920;2023-01-16T00:11:29;3.55;;;2.28;;
59734;SDS011;64362;45.620;4.920;2023-01-16T00:13:54;5.20;;;2.63;;
59734;SDS011;64362;45.620;4.920;2023-01-16T00:16:20;5.00;;;2.85;;
59734;SDS011;64362;45.620;4.920;2023-01-16T00:18:46;4.35;;;3.03;;
59734;SDS011;64362;45.620;4.920;2023-01-16T00:21:11;3.95;;;2.72;;
59734;SDS011;64362;45.620;4.920;2023-01-16T00:23:37;5.07;;;2.85;;
59734;SDS011;64362;45.620;4.920;2023-01-16T00:26:06;4.90;;;2.63;;
59734;SDS011;64362;45.620;4.920;2023-01-16T00:28:34;5.05;;;2.85;;
59734;SDS011;64362;45.620;4.920;2023-01-16T00:31:03;3.60;;;2.20;;
59734;SDS011;64362;45.620;4.920;2023-01-16T00:33:32;5.05;;;2.80;;
59734;SDS011;64362;45.620;4.920;2023-01-16T00:35:59;4.20;;;2.33;;
59734;SDS011;64362;45.620;4.920;2023-01-16T00:38:25;4.47;;;2.78;;
59734;SDS011;64362;45.620;4.920;2023-01-16T00:40:51;3.80;;;2.47;;
59734;SDS011;64362;45.620;4.920;2023-01-16T00:43:16;4.13;;;2.42;;
59734;SDS011;64362;45.620;4.920;2023-01-16T00:45:42;4.00;;;2.60;;
59734;SDS011;64362;45.620;4.920;2023-01-16T00:48:08;5.95;;;2.80;;
59734;SDS011;64362;45.620;4.920;2023-01-16T00:50:33;3.78;;;2.30;;
59734;SDS011;64362;45.620;4.920;2023-01-16T00:52:59;4.30;;;2.63;;
59734;SDS011;64362;45.620;4.920;2023-01-16T00:55:24;4.05;;;2.20;;
59734;SDS011;64362;45.620;4.920;2023-01-16T00:57:50;4.28;;;2.42;;
59734;SDS011;64362;45.620;4.920;2023-01-16T01:00:16;4.07;;;2.50;;
59734;SDS011;64362;45.620;4.920;2023-01-16T01:02:44;3.72;;;2.60;;
59734;SDS011;64362;45.620;4.920;2023-01-16T01:05:10;4.95;;;2.65;;
59734;SDS011;64362;45.620;4.920;2023-01-16T01:07:36;4.28;;;2.90;;
59734;SDS011;64362;45.620;4.920;2023-01-16T01:10:01;5.03;;;2.78;;
59734;SDS011;64362;45.620;4.920;2023-01-16T01:12:27;4.35;;;2.78;;
59734;SDS011;64362;45.620;4.920;2023-01-16T01:14:52;3.72;;;2.40;;
59734;SDS011;64362;45.620;4.920;2023-01-16T01:17:18;4.22;;;2.45;;
59734;SDS011;64362;45.620;4.920;2023-01-16T01:19:43;4.68;;;2.80;;
59734;SDS011;64362;45.620;4.920;2023-01-16T01:22:09;4.15;;;2.70;;
59734;SDS011;64362;45.620;4.920;2023-01-16T01:24:34;3.53;;;2.22;;
59734;SDS011;64362;45.620;4.920;2023-01-16T01:27:00;5.10;;;2.60;;
59734;SDS011;64362;45.620;4.920;2023-01-16T01:29:25;4.18;;;2.25;;
59734;SDS011;64362;45.620;4.920;2023-01-16T01:31:51;3.42;;;2.50;;
59734;SDS011;64362;45.620;4.920;2023-01-16T01:34:16;4.07;;;2.67;;
59734;SDS011;64362;45.620;4.920;2023-01-16T01:36:42;6.63;;;2.60;;
59734;SDS011;64362;45.620;4.920;2023-01-16T01:39:07;4.55;;;2.60;;
59734;SDS011;64362;45.620;4.920;2023-01-16T01:41:33;4.82;;;2.75;;
59734;SDS011;64362;45.620;4.920;2023-01-16T01:43:58;4.35;;;2.95;;
59734;SDS011;64362;45.620;4.920;2023-01-16T01:46:32;4.13;;;2.63;;
59734;SDS011;64362;45.620;4.920;2023-01-16T01:49:06;3.67;;;2.65;;
59734;SDS011;64362;45.620;4.920;2023-01-16T01:51:36;4.93;;;2.75;;
59734;SDS011;64362;45.620;4.920;2023-01-16T01:54:04;5.00;;;2.95;;
59734;SDS011;64362;45.620;4.920;2023-01-16T01:56:42;5.68;;;2.90;;
59734;SDS011;64362;45.620;4.920;2023-01-16T01:59:12;3.75;;;2.40;;
59734;SDS011;64362;45.620;4.920;2023-01-16T02:01:41;4.90;;;3.00;;
59734;SDS011;64362;45.620;4.920;2023-01-16T02:04:12;3.90;;;2.55;;
59734;SDS011;64362;45.620;4.920;2023-01-16T02:06:41;3.97;;;2.58;;
59734;SDS011;64362;45.620;4.920;2023-01-16T02:09:09;3.95;;;3.00;;
59734;SDS011;64362;45.620;4.920;2023-01-16T02:11:39;3.45;;;2.70;;
59734;SDS011;64362;45.620;4.920;2023-01-16T02:14:11;5.38;;;3.03;;
59734;SDS011;64362;45.620;4.920;2023-01-16T02:16:38;3.95;;;2.50;;
59734;SDS011;64362;45.620;4.920;2023-01-16T02:19:42;4.88;;;2.80;;
59734;SDS011;64362;45.620;4.920;2023-01-16T02:38:08;5.63;;;3.38;;
59734;SDS011;64362;45.620;4.920;2023-01-16T02:41:22;5.13;;;2.72;;
59734;SDS011;64362;45.620;4.920;2023-01-16T02:46:05;4.68;;;3.13;;
59734;SDS011;64362;45.620;4.920;2023-01-16T02:48:38;4.82;;;3.08;;
59734;SDS011;64362;45.620;4.920;2023-01-16T02:51:15;4.57;;;3.00;;
59734;SDS011;64362;45.620;4.920;2023-01-16T02:56:46;4.53;;;2.58;;
59734;SDS011;64362;45.620;4.920;2023-01-16T02:59:14;4.30;;;2.80;;
59734;SDS011;64362;45.620;4.920;2023-01-16T03:01:40;4.53;;;3.03;;
59734;SDS011;64362;45.620;4.920;2023-01-16T03:09:48;4.00;;;2.60;;
59734;SDS011;64362;45.620;4.920;2023-01-16T03:15:26;5.80;;;2.70;;
59734;SDS011;64362;45.620;4.920;2023-01-16T03:18:10;3.42;;;2.25;;
59734;SDS011;64362;45.620;4.920;2023-01-16T03:26:14;3.23;;;2.40;;
59734;SDS011;64362;45.620;4.920;2023-01-16T03:31:27;3.83;;;2.75;;
59734;SDS011;64362;45.620;4.920;2023-01-16T03:34:01;4.20;;;2.83;;
59734;SDS011;64362;45.620;4.920;2023-01-16T03:36:43;3.85;;;2.33;;
59734;SDS011;64362;45.620;4.920;2023-01-16T03:39:16;3.80;;;2.28;;
59734;SDS011;64362;45.620;4.920;2023-01-16T03:41:43;5.10;;;2.47;;
59734;SDS011;64362;45.620;4.920;2023-01-16T03:44:15;4.78;;;2.38;;
59734;SDS011;64362;45.620;4.920;2023-01-16T03:46:50;4.18;;;2.10;;
59734;SDS011;64362;45.620;4.920;2023-01-16T03:49:27;3.45;;;2.25;;
59734;SDS011;64362;45.620;4.920;2023-01-16T03:52:06;4.25;;;2.33;;
59734;SDS011;64362;45.620;4.920;2023-01-16T03:57:32;3.60;;;2.35;;
59734;SDS011;64362;45.620;4.920;2023-01-16T04:00:02;4.10;;;2.30;;
59734;SDS011;64362;45.620;4.920;2023-01-16T04:10:38;3.35;;;2.30;;
59734;SDS011;64362;45.620;4.920;2023-01-16T04:13:06;3.78;;;2.05;;
59734;SDS011;64362;45.620;4.920;2023-01-16T04:15:35;2.58;;;1.85;;
59734;SDS011;64362;45.620;4.920;2023-01-16T04:18:03;4.68;;;1.95;;
59734;SDS011;64362;45.620;4.920;2023-01-16T04:20:29;2.83;;;1.92;;
59734;SDS011;64362;45.620;4.920;2023-01-16T04:22:55;3.42;;;2.00;;
59734;SDS011;64362;45.620;4.920;2023-01-16T04:25:20;3.13;;;1.70;;
59734;SDS011;64362;45.620;4.920;2023-01-16T04:27:47;3.00;;;1.95;;
59734;SDS011;64362;45.620;4.920;2023-01-16T04:30:13;2.88;;;1.65;;
59734;SDS011;64362;45.620;4.920;2023-01-16T04:32:40;2.85;;;1.90;;
59734;SDS011;64362;45.620;4.920;2023-01-16T04:35:06;2.78;;;1.80;;
59734;SDS011;64362;45.620;4.920;2023-01-16T04:37:32;3.42;;;1.60;;
59734;SDS011;64362;45.620;4.920;2023-01-16T04:39:58;3.22;;;1.90;;
59734;SDS011;64362;45.620;4.920;2023-01-16T04:42:24;2.70;;;1.50;;
59734;SDS011;64362;45.620;4.920;2023-01-16T04:44:50;2.60;;;1.42;;
59734;SDS011;64362;45.620;4.920;2023-01-16T04:47:15;3.15;;;1.63;;
59734;SDS011;64362;45.620;4.920;2023-01-16T04:49:41;3.28;;;1.77;;
59734;SDS011;64362;45.620;4.920;2023-01-16T04:52:06;3.25;;;1.85;;
59734;SDS011;64362;45.620;4.920;2023-01-16T04:54:32;2.90;;;1.40;;
59734;SDS011;64362;45.620;4.920;2023-01-16T04:56:57;2.83;;;1.40;;
59734;SDS011;64362;45.620;4.920;2023-01-16T04:59:23;2.33;;;1.45;;
59734;SDS011;64362;45.620;4.920;2023-01-16T05:01:48;2.63;;;1.50;;
59734;SDS011;64362;45.620;4.920;2023-01-16T05:04:14;2.83;;;1.50;;
59734;SDS011;64362;45.620;4.920;2023-01-16T05:06:41;2.25;;;1.33;;
59734;SDS011;64362;45.620;4.920;2023-01-16T05:09:07;2.35;;;1.45;;
59734;SDS011;64362;45.620;4.920;2023-01-16T05:11:33;2.20;;;1.30;;
59734;SDS011;64362;45.620;4.920;2023-01-16T05:13:59;2.92;;;1.45;;
59734;SDS011;64362;45.620;4.920;2023-01-16T05:16:25;3.15;;;1.88;;
59734;SDS011;64362;45.620;4.920;2023-01-16T05:18:50;2.08;;;1.20;;
59734;SDS011;64362;45.620;4.920;2023-01-16T05:21:16;2.85;;;1.45;;
59734;SDS011;64362;45.620;4.920;2023-01-16T05:23:41;2.83;;;1.45;;
59734;SDS011;64362;45.620;4.920;2023-01-16T05:26:07;3.15;;;1.67;;
59734;SDS011;64362;45.620;4.920;2023-01-16T05:28:33;2.15;;;1.10;;
59734;SDS011;64362;45.620;4.920;2023-01-16T05:30:59;2.97;;;1.20;;
59734;SDS011;64362;45.620;4.920;2023-01-16T05:33:25;2.03;;;1.15;;
59734;SDS011;64362;45.620;4.920;2023-01-16T05:35:51;2.95;;;1.48;;
59734;SDS011;64362;45.620;4.920;2023-01-16T05:38:18;2.20;;;1.08;;
59734;SDS011;64362;45.620;4.920;2023-01-16T05:40:44;2.03;;;1.08;;
59734;SDS011;64362;45.620;4.920;2023-01-16T05:43:10;3.25;;;1.67;;
59734;SDS011;64362;45.620;4.920;2023-01-16T05:45:35;3.20;;;1.17;;
59734;SDS011;64362;45.620;4.920;2023-01-16T05:48:01;2.05;;;0.98;;
59734;SDS011;64362;45.620;4.920;2023-01-16T05:50:26;3.42;;;1.60;;
59734;SDS011;64362;45.620;4.920;2023-01-16T05:52:53;2.20;;;1.10;;
59734;SDS011;64362;45.620;4.920;2023-01-16T05:55:19;2.20;;;1.20;;
59734;SDS011;64362;45.620;4.920;2023-01-16T05:57:44;2.40;;;1.25;;
59734;SDS011;64362;45.620;4.920;2023-01-16T06:00:10;1.90;;;0.98;;
59734;SDS011;64362;45.620;4.920;2023-01-16T06:02:36;2.08;;;1.08;;
59734;SDS011;64362;45.620;4.920;2023-01-16T06:05:01;2.70;;;1.00;;
59734;SDS011;64362;45.620;4.920;2023-01-16T06:07:27;2.70;;;1.00;;
59734;SDS011;64362;45.620;4.920;2023-01-16T06:09:53;2.20;;;1.00;;
59734;SDS011;64362;45.620;4.920;2023-01-16T06:12:19;2.33;;;1.00;;
59734;SDS011;64362;45.620;4.920;2023-01-16T06:14:45;2.22;;;1.02;;
59734;SDS011;64362;45.620;4.920;2023-01-16T06:17:11;2.53;;;1.27;;
59734;SDS011;64362;45.620;4.920;2023-01-16T06:19:39;4.15;;;1.10;;
59734;SDS011;64362;45.620;4.920;2023-01-16T06:22:08;2.28;;;1.25;;
59734;SDS011;64362;45.620;4.920;2023-01-16T06:24:34;2.58;;;1.20;;
59734;SDS011;64362;45.620;4.920;2023-01-16T06:27:00;2.00;;;1.00;;
59734;SDS011;64362;45.620;4.920;2023-01-16T06:29:25;2.75;;;0.90;;
59734;SDS011;64362;45.620;4.920;2023-01-16T06:31:51;5.07;;;1.10;;
59734;SDS011;64362;45.620;4.920;2023-01-16T06:34:16;5.60;;;1.10;;
59734;SDS011;64362;45.620;4.920;2023-01-16T06:36:42;4.97;;;1.00;;
59734;SDS011;64362;45.620;4.920;2023-01-16T06:39:09;4.57;;;0.90;;
59734;SDS011;64362;45.620;4.920;2023-01-16T06:41:35;4.95;;;1.10;;
59734;SDS011;64362;45.620;4.920;2023-01-16T06:44:01;4.85;;;1.23;;
59734;SDS011;64362;45.620;4.920;2023-01-16T06:46:26;2.78;;;0.98;;
59734;SDS011;64362;45.620;4.920;2023-01-16T06:48:52;3.25;;;1.00;;
59734;SDS011;64362;45.620;4.920;2023-01-16T06:51:17;3.47;;;1.08;;
59734;SDS011;64362;45.620;4.920;2023-01-16T06:53:43;3.38;;;0.88;;
59734;SDS011;64362;45.620;4.920;2023-01-16T06:56:08;2.38;;;1.02;;
59734;SDS011;64362;45.620;4.920;2023-01-16T06:58:34;3.78;;;1.00;;
59734;SDS011;64362;45.620;4.920;2023-01-16T07:00:59;2.47;;;0.93;;
59734;SDS011;64362;45.620;4.920;2023-01-16T07:03:25;1.85;;;0.95;;
59734;SDS011;64362;45.620;4.920;2023-01-16T07:05:50;4.13;;;1.00;;
59734;SDS011;64362;45.620;4.920;2023-01-16T07:08:16;3.45;;;0.90;;
59734;SDS011;64362;45.620;4.920;2023-01-16T07:10:41;2.67;;;1.20;;
59734;SDS011;64362;45.620;4.920;2023-01-16T07:13:07;2.83;;;0.80;;
59734;SDS011;64362;45.620;4.920;2023-01-16T07:15:35;2.42;;;0.95;;
59734;SDS011;64362;45.620;4.920;2023-01-16T07:18:20;3.42;;;1.55;;
59734;SDS011;64362;45.620;4.920;2023-01-16T07:21:05;1.77;;;0.75;;
59734;SDS011;64362;45.620;4.920;2023-01-16T07:24:02;3.13;;;1.02;;
59734;SDS011;64362;45.620;4.920;2023-01-16T07:26:30;3.63;;;1.15;;
59734;SDS011;64362;45.620;4.920;2023-01-16T07:28:57;4.88;;;1.23;;
59734;SDS011;64362;45.620;4.920;2023-01-16T07:31:23;1.92;;;0.90;;
59734;SDS011;64362;45.620;4.920;2023-01-16T07:33:48;4.07;;;1.02;;
59734;SDS011;64362;45.620;4.920;2023-01-16T07:36:14;3.53;;;1.20;;
59734;SDS011;64362;45.620;4.920;2023-01-16T07:38:39;2.20;;;1.00;;
59734;SDS011;64362;45.620;4.920;2023-01-16T07:41:05;2.05;;;0.75;;
59734;SDS011;64362;45.620;4.920;2023-01-16T07:43:30;3.38;;;0.88;;
59734;SDS011;64362;45.620;4.920;2023-01-16T07:45:56;3.63;;;1.00;;
59734;SDS011;64362;45.620;4.920;2023-01-16T07:48:22;3.10;;;1.00;;
59734;SDS011;64362;45.620;4.920;2023-01-16T07:50:51;2.03;;;0.60;;
59734;SDS011;64362;45.620;4.920;2023-01-16T07:53:17;2.30;;;1.00;;
59734;SDS011;64362;45.620;4.920;2023-01-16T07:55:47;2.10;;;0.73;;
59734;SDS011;64362;45.620;4.920;2023-01-16T07:58:16;2.22;;;0.82;;
59734;SDS011;64362;45.620;4.920;2023-01-16T08:00:42;2.25;;;0.85;;
59734;SDS011;64362;45.620;4.920;2023-01-16T08:03:08;2.08;;;0.95;;
59734;SDS011;64362;45.620;4.920;2023-01-16T08:05:34;2.33;;;0.90;;
59734;SDS011;64362;45.620;4.920;2023-01-16T08:07:59;2.35;;;0.77;;
59734;SDS011;64362;45.620;4.920;2023-01-16T08:10:25;2.00;;;0.90;;
59734;SDS011;64362;45.620;4.920;2023-01-16T08:12:50;2.35;;;0.70;;
59734;SDS011;64362;45.620;4.920;2023-01-16T08:15:16;2.67;;;0.80;;
59734;SDS011;64362;45.620;4.920;2023-01-16T08:17:41;3.60;;;1.38;;
59734;SDS011;64362;45.620;4.920;2023-01-16T08:20:07;2.10;;;0.80;;
59734;SDS011;64362;45.620;4.920;2023-01-16T08:22:33;3.08;;;0.85;;
59734;SDS011;64362;45.620;4.920;2023-01-16T08:24:59;3.10;;;0.90;;
59734;SDS011;64362;45.620;4.920;2023-01-16T08:27:24;1.75;;;0.77;;
59734;SDS011;64362;45.620;4.920;2023-01-16T08:29:50;4.28;;;0.82;;
59734;SDS011;64362;45.620;4.920;2023-01-16T08:32:15;2.00;;;0.90;;
59734;SDS011;64362;45.620;4.920;2023-01-16T08:34:41;3.25;;;0.90;;
59734;SDS011;64362;45.620;4.920;2023-01-16T08:37:07;2.67;;;1.23;;
59734;SDS011;64362;45.620;4.920;2023-01-16T08:39:35;3.20;;;0.80;;
59734;SDS011;64362;45.620;4.920;2023-01-16T08:42:01;2.28;;;0.82;;
59734;SDS011;64362;45.620;4.920;2023-01-16T08:44:46;2.20;;;0.80;;
59734;SDS011;64362;45.620;4.920;2023-01-16T08:47:30;2.17;;;0.88;;
59734;SDS011;64362;45.620;4.920;2023-01-16T08:50:18;2.00;;;0.80;;
59734;SDS011;64362;45.620;4.920;2023-01-16T08:53:03;2.30;;;0.80;;
59734;SDS011;64362;45.620;4.920;2023-01-16T08:55:29;2.45;;;0.90;;
59734;SDS011;64362;45.620;4.920;2023-01-16T08:57:55;2.65;;;0.90;;
59734;SDS011;64362;45.620;4.920;2023-01-16T09:00:24;2.30;;;0.70;;
59734;SDS011;64362;45.620;4.920;2023-01-16T09:02:50;2.78;;;0.82;;
59734;SDS011;64362;45.620;4.920;2023-01-16T09:05:15;3.30;;;0.85;;
59734;SDS011;64362;45.620;4.920;2023-01-16T09:07:41;2.95;;;0.70;;
59734;SDS011;64362;45.620;4.920;2023-01-16T09:10:07;2.03;;;0.70;;
59734;SDS011;64362;45.620;4.920;2023-01-16T09:12:33;2.65;;;1.30;;
59734;SDS011;64362;45.620;4.920;2023-01-16T09:15:17;1.85;;;0.60;;
59734;SDS011;64362;45.620;4.920;2023-01-16T09:17:43;3.00;;;0.73;;
59734;SDS011;64362;45.620;4.920;2023-01-16T09:20:09;1.40;;;0.60;;
59734;SDS011;64362;45.620;4.920;2023-01-16T09:22:35;2.33;;;0.88;;
59734;SDS011;64362;45.620;4.920;2023-01-16T09:25:00;2.90;;;0.98;;
59734;SDS011;64362;45.620;4.920;2023-01-16T09:27:26;2.00;;;0.90;;
59734;SDS011;64362;45.620;4.920;2023-01-16T09:29:51;1.27;;;0.50;;
59734;SDS011;64362;45.620;4.920;2023-01-16T09:32:17;2.35;;;0.70;;
59734;SDS011;64362;45.620;4.920;2023-01-16T09:34:43;2.00;;;0.70;;
59734;SDS011;64362;45.620;4.920;2023-01-16T09:37:09;3.25;;;0.77;;
59734;SDS011;64362;45.620;4.920;2023-01-16T09:39:35;1.38;;;0.50;;
59734;SDS011;64362;45.620;4.920;2023-01-16T09:42:07;2.28;;;0.60;;
59734;SDS011;64362;45.620;4.920;2023-01-16T09:44:52;0.90;;;0.50;;
59734;SDS011;64362;45.620;4.920;2023-01-16T09:47:20;1.95;;;0.80;;
59734;SDS011;64362;45.620;4.920;2023-01-16T09:49:49;2.63;;;0.88;;
59734;SDS011;64362;45.620;4.920;2023-01-16T09:52:23;1.92;;;0.70;;
59734;SDS011;64362;45.620;4.920;2023-01-16T09:55:12;2.17;;;0.70;;
59734;SDS011;64362;45.620;4.920;2023-01-16T09:58:03;2.38;;;0.82;;
59734;SDS011;64362;45.620;4.920;2023-01-16T10:00:47;1.90;;;0.70;;
59734;SDS011;64362;45.620;4.920;2023-01-16T10:03:13;2.45;;;0.70;;
59734;SDS011;64362;45.620;4.920;2023-01-16T10:05:41;2.22;;;0.68;;
59734;SDS011;64362;45.620;4.920;2023-01-16T10:11:06;2.33;;;0.88;;
59734;SDS011;64362;45.620;4.920;2023-01-16T10:13:53;2.35;;;0.85;;
59734;SDS011;64362;45.620;4.920;2023-01-16T10:24:57;1.90;;;0.73;;
59734;SDS011;64362;45.620;4.920;2023-01-16T10:29:40;1.73;;;0.60;;
59734;SDS011;64362;45.620;4.920;2023-01-16T10:32:19;1.95;;;0.60;;
59734;SDS011;64362;45.620;4.920;2023-01-16T10:34:54;1.25;;;0.50;;
59734;SDS011;64362;45.620;4.920;2023-01-16T10:37:25;2.15;;;0.52;;
59734;SDS011;64362;45.620;4.920;2023-01-16T10:39:51;2.00;;;0.82;;
59734;SDS011;64362;45.620;4.920;2023-01-16T10:42:19;1.90;;;0.90;;
59734;SDS011;64362;45.620;4.920;2023-01-16T10:45:12;2.13;;;0.77;;
59734;SDS011;64362;45.620;4.920;2023-01-16T10:48:19;1.70;;;0.60;;
59734;SDS011;64362;45.620;4.920;2023-01-16T10:51:03;2.17;;;0.60;;
59734;SDS011;64362;45.620;4.920;2023-01-16T10:53:30;1.60;;;0.60;;
59734;SDS011;64362;45.620;4.920;2023-01-16T10:55:56;2.40;;;0.80;;
59734;SDS011;64362;45.620;4.920;2023-01-16T10:58:26;2.63;;;0.80;;
59734;SDS011;64362;45.620;4.920;2023-01-16T11:01:15;2.80;;;1.00;;
59734;SDS011;64362;45.620;4.920;2023-01-16T11:03:41;3.10;;;1.35;;
59734;SDS011;64362;45.620;4.920;2023-01-16T11:06:13;2.03;;;0.60;;
59734;SDS011;64362;45.620;4.920;2023-01-16T11:08:40;2.65;;;0.60;;
59734;SDS011;64362;45.620;4.920;2023-01-16T11:11:08;2.25;;;0.70;;
59734;SDS011;64362;45.620;4.920;2023-01-16T11:13:57;1.83;;;0.70;;
59734;SDS011;64362;45.620;4.920;2023-01-16T11:16:42;2.17;;;0.70;;
59734;SDS011;64362;45.620;4.920;2023-01-16T11:19:27;1.65;;;0.70;;
59734;SDS011;64362;45.620;4.920;2023-01-16T11:21:54;1.77;;;0.70;;
59734;SDS011;64362;45.620;4.920;2023-01-16T11:24:29;1.45;;;0.50;;
59734;SDS011;64362;45.620;4.920;2023-01-16T11:26:57;2.95;;;0.70;;
59734;SDS011;64362;45.620;4.920;2023-01-16T11:29:25;2.70;;;0.68;;
59734;SDS011;64362;45.620;4.920;2023-01-16T11:31:59;2.00;;;0.68;;
59734;SDS011;64362;45.620;4.920;2023-01-16T11:34:31;2.97;;;0.80;;
59734;SDS011;64362;45.620;4.920;2023-01-16T11:36:58;1.85;;;0.70;;
59734;SDS011;64362;45.620;4.920;2023-01-16T11:39:27;1.38;;;0.60;;
59734;SDS011;64362;45.620;4.920;2023-01-16T11:41:55;1.55;;;0.60;;
59734;SDS011;64362;45.620;4.920;2023-01-16T11:44:23;2.40;;;0.60;;
59734;SDS011;64362;45.620;4.920;2023-01-16T11:47:15;1.83;;;0.70;;
59734;SDS011;64362;45.620;4.920;2023-01-16T11:49:52;1.50;;;0.70;;
59734;SDS011;64362;45.620;4.920;2023-01-16T11:52:21;1.95;;;0.80;;
59734;SDS011;64362;45.620;4.920;2023-01-16T11:54:55;2.22;;;0.60;;
59734;SDS011;64362;45.620;4.920;2023-01-16T12:04:57;2.92;;;0.80;;
59734;SDS011;64362;45.620;4.920;2023-01-16T12:11:11;2.47;;;0.73;;
59734;SDS011;64362;45.620;4.920;2023-01-16T12:13:52;2.25;;;0.70;;
59734;SDS011;64362;45.620;4.920;2023-01-16T12:19:25;1.40;;;0.80;;
59734;SDS011;64362;45.620;4.920;2023-01-16T12:24:28;1.52;;;0.73;;
59734;SDS011;64362;45.620;4.920;2023-01-16T12:27:06;1.77;;;0.70;;
59734;SDS011;64362;45.620;4.920;2023-01-16T12:32:31;1.30;;;0.70;;
59734;SDS011;64362;45.620;4.920;2023-01-16T12:35:19;2.95;;;0.80;;
59734;SDS011;64362;45.620;4.920;2023-01-16T12:43:26;1.90;;;0.70;;
59734;SDS011;64362;45.620;4.920;2023-01-16T12:46:02;2.33;;;0.60;;
59734;SDS011;64362;45.620;4.920;2023-01-16T12:53:36;1.15;;;0.55;;
59734;SDS011;64362;45.620;4.920;2023-01-16T12:58:58;1.45;;;0.50;;
59734;SDS011;64362;45.620;4.920;2023-01-16T13:01:28;1.80;;;0.55;;
59734;SDS011;64362;45.620;4.920;2023-01-16T13:06:50;1.00;;;0.40;;
59734;SDS011;64362;45.620;4.920;2023-01-16T13:09:30;1.15;;;0.45;;
59734;SDS011;64362;45.620;4.920;2023-01-16T13:15:10;1.92;;;0.52;;
59734;SDS011;64362;45.620;4.920;2023-01-16T13:17:41;1.23;;;0.50;;
59734;SDS011;64362;45.620;4.920;2023-01-16T13:20:09;1.20;;;0.50;;
59734;SDS011;64362;45.620;4.920;2023-01-16T13:25:29;2.47;;;0.60;;
59734;SDS011;64362;45.620;4.920;2023-01-16T13:28:13;2.00;;;0.65;;
59734;SDS011;64362;45.620;4.920;2023-01-16T13:30:43;1.33;;;0.43;;
59734;SDS011;64362;45.620;4.920;2023-01-16T13:33:12;1.98;;;0.50;;
59734;SDS011;64362;45.620;4.920;2023-01-16T13:35:46;1.15;;;0.50;;
59734;SDS011;64362;45.620;4.920;2023-01-16T13:41:13;0.98;;;0.35;;
59734;SDS011;64362;45.620;4.920;2023-01-16T13:46:43;1.23;;;0.50;;
59734;SDS011;64362;45.620;4.920;2023-01-16T13:49:22;1.30;;;0.30;;
59734;SDS011;64362;45.620;4.920;2023-01-16T13:51:50;1.20;;;0.50;;
59734;SDS011;64362;45.620;4.920;2023-01-16T13:54:34;0.85;;;0.50;;
59734;SDS011;64362;45.620;4.920;2023-01-16T13:57:08;1.03;;;0.50;;
59734;SDS011;64362;45.620;4.920;2023-01-16T14:02:38;0.73;;;0.47;;
59734;SDS011;64362;45.620;4.920;2023-01-16T14:15:53;0.68;;;0.30;;
59734;SDS011;64362;45.620;4.920;2023-01-16T14:24:02;0.50;;;0.30;;
59734;SDS011;64362;45.620;4.920;2023-01-16T14:26:44;1.10;;;0.60;;
59734;SDS011;64362;45.620;4.920;2023-01-16T14:29:35;0.90;;;0.40;;
59734;SDS011;64362;45.620;4.920;2023-01-16T14:34:33;0.68;;;0.38;;
59734;SDS011;64362;45.620;4.920;2023-01-16T14:37:02;2.67;;;0.52;;
59734;SDS011;64362;45.620;4.920;2023-01-16T14:39:33;1.38;;;0.50;;
59734;SDS011;64362;45.620;4.920;2023-01-16T14:42:13;0.90;;;0.30;;
59734;SDS011;64362;45.620;4.920;2023-01-16T14:45:18;0.90;;;0.50;;
59734;SDS011;64362;45.620;4.920;2023-01-16T14:53:50;0.85;;;0.40;;
59734;SDS011;64362;45.620;4.920;2023-01-16T14:56:42;0.70;;;0.38;;
59734;SDS011;64362;45.620;4.920;2023-01-16T15:02:07;0.93;;;0.47;;
59734;SDS011;64362;45.620;4.920;2023-01-16T15:04:53;0.50;;;0.30;;
59734;SDS011;64362;45.620;4.920;2023-01-16T15:12:54;0.60;;;0.45;;
59734;SDS011;64362;45.620;4.920;2023-01-16T15:15:53;0.70;;;0.30;;
59734;SDS011;64362;45.620;4.920;2023-01-16T15:18:23;0.63;;;0.30;;
59734;SDS011;64362;45.620;4.920;2023-01-16T15:21:14;1.40;;;0.75;;
59734;SDS011;64362;45.620;4.920;2023-01-16T15:23:59;0.80;;;0.40;;
59734;SDS011;64362;45.620;4.920;2023-01-16T15:26:38;0.88;;;0.50;;
59734;SDS011;64362;45.620;4.920;2023-01-16T15:29:26;1.10;;;0.50;;
59734;SDS011;64362;45.620;4.920;2023-01-16T15:32:13;1.35;;;0.32;;
59734;SDS011;64362;45.620;4.920;2023-01-16T15:34:43;0.60;;;0.35;;
59734;SDS011;64362;45.620;4.920;2023-01-16T15:37:19;1.10;;;0.52;;
59734;SDS011;64362;45.620;4.920;2023-01-16T15:39:49;0.80;;;0.35;;
59734;SDS011;64362;45.620;4.920;2023-01-16T15:55:55;1.05;;;0.40;;
59734;SDS011;64362;45.620;4.920;2023-01-16T15:58:26;0.98;;;0.45;;
59734;SDS011;64362;45.620;4.920;2023-01-16T16:00:55;1.63;;;0.40;;
59734;SDS011;64362;45.620;4.920;2023-01-16T16:03:22;0.95;;;0.50;;
59734;SDS011;64362;45.620;4.920;2023-01-16T16:05:50;0.57;;;0.40;;
59734;SDS011;64362;45.620;4.920;2023-01-16T16:08:29;0.80;;;0.40;;
59734;SDS011;64362;45.620;4.920;2023-01-16T16:10:57;1.23;;;0.38;;
59734;SDS011;64362;45.620;4.920;2023-01-16T16:13:43;2.17;;;0.43;;
59734;SDS011;64362;45.620;4.920;2023-01-16T16:16:22;0.73;;;0.40;;
59734;SDS011;64362;45.620;4.920;2023-01-16T16:19:07;0.98;;;0.47;;
59734;SDS011;64362;45.620;4.920;2023-01-16T16:21:35;2.17;;;0.40;;
59734;SDS011;64362;45.620;4.920;2023-01-16T16:24:23;0.95;;;0.38;;
59734;SDS011;64362;45.620;4.920;2023-01-16T16:26:49;0.90;;;0.30;;
59734;SDS011;64362;45.620;4.920;2023-01-16T16:29:18;0.85;;;0.43;;
59734;SDS011;64362;45.620;4.920;2023-01-16T16:31:44;0.47;;;0.30;;
59734;SDS011;64362;45.620;4.920;2023-01-16T16:34:14;0.73;;;0.30;;
59734;SDS011;64362;45.620;4.920;2023-01-16T16:36:45;0.50;;;0.30;;
59734;SDS011;64362;45.620;4.920;2023-01-16T16:47:33;1.23;;;0.50;;
59734;SDS011;64362;45.620;4.920;2023-01-16T16:50:00;0.60;;;0.30;;
59734;SDS011;64362;45.620;4.920;2023-01-16T16:52:28;1.05;;;0.35;;
59734;SDS011;64362;45.620;4.920;2023-01-16T16:55:24;0.40;;;0.30;;
59734;SDS011;64362;45.620;4.920;2023-01-16T16:57:52;1.38;;;0.40;;
59734;SDS011;64362;45.620;4.920;2023-01-16T17:00:18;0.52;;;0.30;;
59734;SDS011;64362;45.620;4.920;2023-01-16T17:02:45;0.85;;;0.25;;
59734;SDS011;64362;45.620;4.920;2023-01-16T17:05:12;1.52;;;0.50;;
59734;SDS011;64362;45.620;4.920;2023-01-16T17:07:39;1.65;;;0.30;;
59734;SDS011;64362;45.620;4.920;2023-01-16T17:10:14;0.82;;;0.30;;
59734;SDS011;64362;45.620;4.920;2023-01-16T17:12:41;1.88;;;0.40;;
59734;SDS011;64362;45.620;4.920;2023-01-16T17:15:07;0.93;;;0.30;;
59734;SDS011;64362;45.620;4.920;2023-01-16T17:17:34;0.57;;;0.30;;
59734;SDS011;64362;45.620;4.920;2023-01-16T17:20:00;1.00;;;0.30;;
59734;SDS011;64362;45.620;4.920;2023-01-16T17:22:26;0.85;;;0.40;;
59734;SDS011;64362;45.620;4.920;2023-01-16T17:24:52;1.17;;;0.40;;
59734;SDS011;64362;45.620;4.920;2023-01-16T17:27:19;0.90;;;0.30;;
59734;SDS011;64362;45.620;4.920;2023-01-16T17:29:45;1.30;;;0.38;;
59734;SDS011;64362;45.620;4.920;2023-01-16T17:32:19;2.28;;;0.40;;
59734;SDS011;64362;45.620;4.920;2023-01-16T17:34:47;2.08;;;0.40;;
59734;SDS011;64362;45.620;4.920;2023-01-16T17:37:13;1.60;;;0.40;;
59734;SDS011;64362;45.620;4.920;2023-01-16T17:39:39;2.22;;;0.60;;
59734;SDS011;64362;45.620;4.920;2023-01-16T17:42:04;1.58;;;0.70;;
59734;SDS011;64362;45.620;4.920;2023-01-16T17:44:34;1.05;;;0.40;;
59734;SDS011;64362;45.620;4.920;2023-01-16T17:47:18;2.13;;;0.75;;
59734;SDS011;64362;45.620;4.920;2023-01-16T17:49:44;4.15;;;1.50;;
59734;SDS011;64362;45.620;4.920;2023-01-16T17:52:27;4.13;;;1.73;;
59734;SDS011;64362;45.620;4.920;2023-01-16T17:54:53;5.85;;;2.00;;
59734;SDS011;64362;45.620;4.920;2023-01-16T17:57:37;5.68;;;2.63;;